Time;durP1;ratioP1;P1;durP2;ratioP2;P2;SDS_P1;SDS_P2;PMS_P1;PMS_P2;Temp;Humidity;BMP_temperature;BMP_pressure;BME280_temperature;BME280_humidity;BME280_pressure;Samples;Min_cycle;Max_cycle;Signal;HPM_P1;HPM_P2
2021/09/26 00:03:16;;;;;;;24.33;20.92;;;22.60;51.70;;;;;;4350703;61;21093;-31
2021/09/26 00:08:17;;;;;;;23.20;20.02;;;22.60;51.70;;;;;;4340583;61;21158;-28
2021/09/26 00:13:19;;;;;;;26.00;19.92;;;22.60;51.70;;;;;;4332821;61;21108;-32
2021/09/26 00:18:20;;;;;;;22.62;19.95;;;22.60;51.70;;;;;;4359143;61;21089;-32
2021/09/26 00:23:21;;;;;;;22.13;19.45;;;22.60;51.70;;;;;;4330991;61;21141;-26
2021/09/26 00:28:22;;;;;;;25.83;20.17;;;22.60;51.60;;;;;;4330039;61;21891;-30
2021/09/26 00:33:24;;;;;;;22.42;19.65;;;22.60;51.60;;;;;;4349388;61;21097;-27
2021/09/26 00:38:25;;;;;;;23.17;19.55;;;22.60;51.70;;;;;;4330807;61;21161;-30
2021/09/26 00:43:28;;;;;;;23.83;19.70;;;22.60;51.60;;;;;;4329054;64;21097;-31
2021/09/26 00:48:29;;;;;;;23.62;19.67;;;22.60;51.60;;;;;;4345994;61;21053;-30
2021/09/26 00:53:30;;;;;;;22.58;19.52;;;22.60;51.60;;;;;;4328568;64;21089;-30
2021/09/26 00:58:31;;;;;;;22.08;19.23;;;22.60;51.60;;;;;;4340313;61;21057;-33
2021/09/26 01:03:31;;;;;;;23.55;19.42;;;22.60;51.60;;;;;;4328476;64;21061;-32
2021/09/26 01:08:52;;;;;;;21.75;18.75;;;22.60;51.60;;;;;;4329733;61;21141;-31
2021/09/26 01:14:50;;;;;;;20.80;18.60;;;22.60;51.70;;;;;;4337821;61;21053;-33
2021/09/26 01:23:17;;;;;;;21.60;19.12;;;22.60;51.60;;;;;;4336696;61;21045;-31
2021/09/26 01:31:57;;;;;;;22.30;18.90;;;22.60;51.60;;;;;;4329223;64;21523;-31
2021/09/26 01:37:20;;;;;;;22.95;18.62;;;22.60;51.60;;;;;;4356847;60;21057;-30
2021/09/26 01:42:29;;;;;;;21.87;18.10;;;22.60;51.60;;;;;;4344182;61;21076;-32
2021/09/26 01:47:36;;;;;;;22.80;19.45;;;22.60;51.60;;;;;;4349721;61;21133;-30
2021/09/26 01:52:39;;;;;;;21.10;18.25;;;22.60;51.60;;;;;;4344946;61;21049;-29
2021/09/26 01:57:41;;;;;;;21.02;18.12;;;22.60;51.60;;;;;;4341608;61;21092;-29
2021/09/26 02:02:44;;;;;;;20.90;18.12;;;22.60;51.50;;;;;;4347586;61;21041;-31
2021/09/26 02:07:48;;;;;;;20.37;17.95;;;22.60;51.60;;;;;;4354702;60;21127;-30
2021/09/26 02:12:49;;;;;;;20.62;18.08;;;22.60;51.50;;;;;;4396828;60;21077;-33
2021/09/26 02:17:52;;;;;;;20.60;17.50;;;22.60;51.50;;;;;;4349753;61;21155;-30
2021/09/26 02:22:55;;;;;;;22.25;18.35;;;22.60;51.50;;;;;;4328544;64;21124;-32
2021/09/26 02:27:59;;;;;;;21.20;18.10;;;22.60;51.50;;;;;;4350380;61;21049;-29
2021/09/26 02:33:00;;;;;;;19.95;17.30;;;22.60;51.50;;;;;;4365030;61;21662;-32
2021/09/26 02:38:01;;;;;;;20.15;16.48;;;22.60;51.50;;;;;;4336843;61;21093;-28
2021/09/26 02:43:28;;;;;;;18.73;16.73;;;22.50;51.40;;;;;;4332372;61;21145;-31
2021/09/26 02:48:30;;;;;;;20.02;17.45;;;22.50;51.40;;;;;;4329562;61;21097;-29
2021/09/26 02:53:31;;;;;;;18.48;16.50;;;22.50;51.40;;;;;;4344741;61;21057;-28
2021/09/26 02:58:33;;;;;;;18.75;16.67;;;22.60;51.50;;;;;;4337299;61;21049;-29
2021/09/26 03:03:34;;;;;;;19.23;16.05;;;22.60;51.50;;;;;;4329180;64;21136;-28
2021/09/26 03:08:34;;;;;;;19.23;16.40;;;22.60;51.50;;;;;;4346590;61;21089;-29
2021/09/26 03:13:35;;;;;;;19.20;16.08;;;22.60;51.60;;;;;;4370661;61;21543;-33
2021/09/26 03:18:36;;;;;;;18.92;16.92;;;22.50;51.40;;;;;;4345437;61;21093;-31
2021/09/26 03:23:40;;;;;;;17.83;15.55;;;22.60;51.40;;;;;;4345140;61;21178;-32
2021/09/26 03:28:41;;;;;;;18.73;15.88;;;22.50;51.40;;;;;;4345898;61;21049;-25
2021/09/26 03:33:42;;;;;;;18.02;15.77;;;22.60;52.00;;;;;;4367471;60;21543;-31
2021/09/26 03:38:42;;;;;;;19.15;15.95;;;22.60;51.80;;;;;;4340839;61;21527;-29
2021/09/26 03:43:43;;;;;;;17.20;15.40;;;22.50;51.30;;;;;;4392360;61;21129;-26
2021/09/26 03:48:44;;;;;;;17.05;15.10;;;22.60;51.40;;;;;;4334688;61;21144;-30
2021/09/26 03:53:45;;;;;;;17.12;15.13;;;22.50;51.30;;;;;;4346579;60;21532;-29
2021/09/26 03:58:46;;;;;;;17.50;15.63;;;22.50;51.30;;;;;;4348626;60;21142;-30
2021/09/26 04:03:48;;;;;;;18.33;16.08;;;22.60;51.30;;;;;;4340446;60;21604;-31
2021/09/26 04:08:49;;;;;;;17.70;15.10;;;22.50;51.90;;;;;;4327913;64;21133;-29
2021/09/26 04:13:50;;;;;;;16.67;14.87;;;22.60;51.30;;;;;;4345001;61;21199;-29
2021/09/26 04:18:50;;;;;;;17.12;15.10;;;22.50;51.30;;;;;;4340892;61;21161;-29
2021/09/26 04:23:53;;;;;;;17.55;15.38;;;22.60;51.30;;;;;;4347574;61;21552;-27
2021/09/26 04:28:54;;;;;;;15.93;14.23;;;22.50;51.20;;;;;;4347969;61;21037;-27
2021/09/26 04:33:54;;;;;;;16.85;14.90;;;22.60;51.20;;;;;;4374081;60;21081;-29
2021/09/26 04:38:55;;;;;;;17.30;15.38;;;22.60;51.20;;;;;;4341124;61;21128;-29
2021/09/26 04:43:56;;;;;;;16.55;14.80;;;22.50;51.20;;;;;;4356933;61;21084;-27
2021/09/26 04:48:57;;;;;;;16.02;14.00;;;22.50;51.20;;;;;;4347478;61;21104;-29
2021/09/26 04:53:59;;;;;;;15.60;14.00;;;22.50;51.10;;;;;;4356270;60;21065;-29
2021/09/26 04:59:03;;;;;;;17.10;14.10;;;22.50;51.10;;;;;;4334146;61;21120;-28
2021/09/26 05:04:04;;;;;;;16.15;14.25;;;22.50;51.10;;;;;;4386223;61;21129;-30
2021/09/26 05:09:05;;;;;;;15.32;13.73;;;22.50;51.10;;;;;;4366620;61;21122;-31
2021/09/26 05:14:06;;;;;;;15.20;13.62;;;22.50;51.10;;;;;;4351348;60;21125;-32
2021/09/26 05:19:08;;;;;;;15.80;14.10;;;22.50;51.10;;;;;;4369812;61;21186;-28
2021/09/26 05:24:09;;;;;;;14.32;12.82;;;22.50;51.10;;;;;;4328892;64;22224;-30
2021/09/26 05:29:10;;;;;;;14.57;13.10;;;22.50;51.00;;;;;;4385700;61;21200;-32
2021/09/26 05:34:13;;;;;;;14.50;12.70;;;22.50;51.00;;;;;;4361734;61;21069;-32
2021/09/26 05:39:13;;;;;;;15.68;14.05;;;22.50;51.00;;;;;;4341137;61;21671;-29
2021/09/26 05:44:14;;;;;;;14.60;12.77;;;22.50;51.00;;;;;;4384312;60;21097;-32
2021/09/26 05:49:15;;;;;;;15.65;13.43;;;22.50;51.00;;;;;;4380937;60;21149;-31
2021/09/26 05:54:16;;;;;;;15.00;13.38;;;22.50;50.90;;;;;;4418626;60;21184;-30
2021/09/26 05:59:17;;;;;;;14.02;12.52;;;22.50;50.90;;;;;;4337405;61;21419;-30
2021/09/26 06:04:18;;;;;;;15.43;12.73;;;22.50;50.90;;;;;;4328912;64;21175;-32
2021/09/26 06:09:19;;;;;;;14.32;12.82;;;22.50;50.90;;;;;;4335490;61;21124;-31
2021/09/26 06:14:19;;;;;;;13.27;11.82;;;22.50;50.90;;;;;;4343525;61;21156;-30
2021/09/26 06:19:20;;;;;;;14.27;12.60;;;22.50;50.90;;;;;;4355580;60;21118;-31
2021/09/26 06:24:21;;;;;;;13.27;11.90;;;22.50;50.90;;;;;;4333365;60;21416;-29
2021/09/26 06:29:22;;;;;;;16.02;12.77;;;22.50;50.90;;;;;;4330414;60;21215;-31
2021/09/26 06:34:22;;;;;;;13.52;12.05;;;22.50;50.90;;;;;;4333835;61;21619;-32
2021/09/26 06:39:24;;;;;;;14.38;12.10;;;22.50;50.90;;;;;;4337546;61;21065;-30
2021/09/26 06:44:26;;;;;;;14.18;11.77;;;22.50;50.90;;;;;;4365137;61;21186;-31
2021/09/26 06:49:26;;;;;;;13.82;12.25;;;22.50;50.90;;;;;;4329131;61;21124;-31
2021/09/26 06:54:27;;;;;;;12.40;11.10;;;22.50;50.90;;;;;;4329089;64;21069;-34
2021/09/26 06:59:28;;;;;;;13.77;12.20;;;22.50;50.90;;;;;;4345300;61;21076;-36
2021/09/26 07:04:29;;;;;;;14.30;11.85;;;22.50;50.90;;;;;;4328636;64;21073;-28
2021/09/26 07:09:30;;;;;;;13.40;11.68;;;22.50;50.90;;;;;;4400992;60;21612;-27
2021/09/26 07:14:31;;;;;;;13.23;11.80;;;22.50;51.00;;;;;;4346795;60;21645;-30
2021/09/26 07:19:31;;;;;;;12.82;11.52;;;22.50;50.90;;;;;;4333225;61;21069;-29
2021/09/26 07:24:32;;;;;;;13.40;11.98;;;22.50;50.90;;;;;;4328218;64;21069;-25
2021/09/26 07:29:34;;;;;;;15.10;11.45;;;22.50;50.90;;;;;;4347956;61;21037;-29
2021/09/26 07:34:35;;;;;;;13.07;11.68;;;22.50;50.90;;;;;;4329175;64;21594;-25
2021/09/26 07:39:36;;;;;;;12.82;11.52;;;22.50;51.00;;;;;;4376532;60;21114;-28
2021/09/26 07:44:37;;;;;;;12.70;11.40;;;22.50;50.90;;;;;;4350113;61;21081;-29
2021/09/26 07:49:37;;;;;;;13.23;11.80;;;22.50;50.90;;;;;;4351929;61;21117;-25
2021/09/26 07:54:39;;;;;;;14.30;12.70;;;22.50;50.90;;;;;;4332019;61;21065;-28
2021/09/26 07:59:41;;;;;;;13.43;11.80;;;22.50;50.90;;;;;;4328540;61;21538;-29
2021/09/26 08:04:42;;;;;;;14.52;12.40;;;22.50;51.00;;;;;;4345274;61;21623;-30
2021/09/26 08:09:43;;;;;;;14.10;11.98;;;22.50;50.90;;;;;;4348975;61;21052;-29
2021/09/26 08:14:44;;;;;;;13.85;11.73;;;22.50;50.90;;;;;;4346845;61;21077;-26
2021/09/26 08:19:45;;;;;;;13.40;12.00;;;22.50;51.00;;;;;;4328856;61;21065;-31
2021/09/26 08:24:46;;;;;;;13.43;12.02;;;22.50;50.90;;;;;;4347263;61;21057;-30
2021/09/26 08:29:47;;;;;;;14.30;12.20;;;22.50;51.10;;;;;;4343239;60;21134;-29
2021/09/26 08:34:47;;;;;;;15.52;12.55;;;22.50;50.90;;;;;;4345354;60;21117;-29
2021/09/26 08:39:48;;;;;;;13.48;11.93;;;22.50;51.00;;;;;;4344163;61;21192;-29
2021/09/26 08:44:50;;;;;;;15.50;13.25;;;22.50;51.00;;;;;;4342690;61;21269;-31
2021/09/26 08:49:51;;;;;;;15.02;12.85;;;22.50;51.00;;;;;;4344792;61;21113;-30
2021/09/26 08:54:52;;;;;;;15.23;12.93;;;22.50;51.00;;;;;;4364348;60;21069;-32
2021/09/26 08:59:53;;;;;;;15.35;12.70;;;22.50;51.00;;;;;;4331490;61;21073;-30
2021/09/26 09:04:54;;;;;;;14.40;12.82;;;22.50;51.00;;;;;;4345546;61;21160;-29
2021/09/26 09:10:00;;;;;;;15.07;13.48;;;22.50;51.00;;;;;;4369930;61;21061;-30
2021/09/26 09:15:05;;;;;;;14.23;12.80;;;22.50;51.00;;;;;;4328960;64;21133;-31
2021/09/26 09:20:27;;;;;;;16.50;13.20;;;22.50;51.00;;;;;;4353159;60;21189;-29
2021/09/26 09:25:31;;;;;;;15.55;12.98;;;22.50;51.10;;;;;;4329828;61;21076;-32
2021/09/26 09:30:36;;;;;;;14.50;13.00;;;22.50;51.10;;;;;;4339703;61;21191;-30
2021/09/26 09:37:17;;;;;;;14.20;12.43;;;22.50;51.00;;;;;;4328487;64;21187;-30
2021/09/26 09:42:22;;;;;;;14.87;13.35;;;22.50;51.10;;;;;;4344956;61;21134;-33
2021/09/26 09:47:23;;;;;;;14.87;13.30;;;22.50;51.00;;;;;;4374965;60;21085;-29
2021/09/26 09:52:46;;;;;;;14.30;12.77;;;22.50;51.10;;;;;;4357617;61;21551;-30
2021/09/26 09:57:47;;;;;;;14.93;13.32;;;22.50;51.10;;;;;;4329543;64;21638;-33
2021/09/26 10:02:48;;;;;;;13.82;12.15;;;22.50;51.10;;;;;;4343682;61;21080;-32
2021/09/26 10:07:50;;;;;;;14.40;12.73;;;22.50;51.10;;;;;;4343862;61;21126;-34
2021/09/26 10:13:10;;;;;;;15.43;13.55;;;22.50;51.10;;;;;;4330491;61;21104;-34
2021/09/26 10:18:11;;;;;;;14.10;12.63;;;22.50;51.10;;;;;;4338975;60;21076;-32
2021/09/26 10:23:12;;;;;;;14.77;13.20;;;22.50;51.10;;;;;;4359177;61;21117;-30
2021/09/26 10:28:13;;;;;;;15.30;13.68;;;22.50;51.10;;;;;;4347156;61;21183;-31
2021/09/26 10:33:15;;;;;;;15.90;14.25;;;22.50;51.10;;;;;;4338894;60;21069;-33
2021/09/26 10:38:17;;;;;;;16.73;14.85;;;22.60;51.20;;;;;;4328374;64;21049;-30
2021/09/26 10:43:26;;;;;;;16.42;13.75;;;22.50;51.20;;;;;;4329044;64;21568;-30
2021/09/26 10:49:00;;;;;;;16.55;14.50;;;22.50;51.10;;;;;;4328760;64;21126;-29
2021/09/26 10:54:46;;;;;;;17.20;14.98;;;22.60;51.20;;;;;;4336336;61;21108;-28
2021/09/26 10:59:52;;;;;;;17.27;15.35;;;22.50;51.20;;;;;;4339880;61;21221;-30
2021/09/26 11:05:01;;;;;;;18.45;16.27;;;22.60;51.20;;;;;;4349476;61;21775;-30
2021/09/26 11:10:10;;;;;;;18.37;16.48;;;22.60;51.20;;;;;;4345937;61;21116;-32
2021/09/26 11:15:20;;;;;;;18.62;16.67;;;22.60;51.20;;;;;;4346757;61;21097;-33
2021/09/26 11:20:54;;;;;;;20.92;18.20;;;22.50;51.20;;;;;;4338551;61;21091;-31
2021/09/26 11:26:12;;;;;;;20.20;17.75;;;22.60;51.30;;;;;;4330930;61;21284;-32
2021/09/26 11:31:40;;;;;;;20.55;17.98;;;22.60;51.50;;;;;;4349495;60;21076;-31
2021/09/26 11:36:52;;;;;;;21.92;18.42;;;22.60;51.30;;;;;;4335468;61;21382;-33
2021/09/26 11:41:53;;;;;;;22.05;18.60;;;22.60;51.30;;;;;;4348026;61;21096;-27
2021/09/26 11:46:56;;;;;;;22.20;19.05;;;22.60;51.30;;;;;;4328611;64;21562;-31
2021/09/26 11:51:58;;;;;;;23.23;20.73;;;22.60;51.30;;;;;;4340341;61;21145;-28
2021/09/26 11:56:59;;;;;;;23.85;20.15;;;22.60;51.30;;;;;;4340547;61;21675;-32
2021/09/26 12:02:14;;;;;;;22.42;20.05;;;22.60;51.30;;;;;;4344658;60;21205;-29
2021/09/26 12:07:15;;;;;;;23.25;20.45;;;22.60;51.30;;;;;;4349521;61;21116;-31
2021/09/26 12:12:26;;;;;;;24.20;21.23;;;22.60;51.30;;;;;;4329117;64;21600;-33
2021/09/26 12:17:29;;;;;;;24.63;20.67;;;22.60;51.30;;;;;;4339017;61;21132;-30
2021/09/26 12:22:30;;;;;;;23.33;20.83;;;22.60;51.40;;;;;;4337507;61;21061;-27
2021/09/26 12:27:53;;;;;;;24.87;22.13;;;22.60;51.30;;;;;;4338794;61;21554;-30
2021/09/26 12:33:10;;;;;;;25.33;21.60;;;22.60;51.40;;;;;;4336226;60;21165;-32
2021/09/26 12:38:20;;;;;;;25.65;21.55;;;22.60;51.40;;;;;;4330655;61;22537;-31
2021/09/26 12:43:23;;;;;;;26.73;22.02;;;22.60;51.40;;;;;;4352170;61;21073;-27
2021/09/26 12:48:25;;;;;;;26.75;22.55;;;22.60;51.40;;;;;;4362723;61;21116;-31
2021/09/26 12:53:29;;;;;;;24.23;21.60;;;22.60;51.40;;;;;;4334355;61;21622;-29
2021/09/26 12:58:42;;;;;;;25.88;22.95;;;22.60;51.40;;;;;;4363456;61;21136;-31
2021/09/26 13:04:02;;;;;;;27.50;23.27;;;22.60;51.40;;;;;;4336624;60;21110;-27
2021/09/26 13:09:25;;;;;;;28.33;24.23;;;22.60;51.50;;;;;;4337441;61;21100;-29
2021/09/26 13:14:32;;;;;;;26.15;22.80;;;22.60;51.50;;;;;;4356254;61;21045;-33
2021/09/26 13:19:51;;;;;;;28.00;24.17;;;22.60;51.50;;;;;;4341414;61;21061;-29
2021/09/26 13:25:21;;;;;;;26.45;23.42;;;22.60;51.50;;;;;;4352579;61;21563;-32
2021/09/26 13:30:36;;;;;;;26.62;23.27;;;22.60;51.50;;;;;;4366407;61;21069;-29
2021/09/26 13:35:39;;;;;;;26.12;23.33;;;22.60;51.50;;;;;;4343474;61;21056;-30
2021/09/26 13:40:48;;;;;;;28.23;24.40;;;22.70;51.60;;;;;;4354571;61;21081;-31
2021/09/26 13:45:49;;;;;;;29.75;24.77;;;22.60;51.60;;;;;;4357333;61;21055;-29
2021/09/26 13:50:50;;;;;;;28.00;24.50;;;22.70;51.60;;;;;;4370868;60;21527;-31
2021/09/26 13:55:52;;;;;;;33.22;26.58;;;22.60;51.50;;;;;;4365670;60;21137;-31
2021/09/26 14:00:54;;;;;;;30.80;25.40;;;22.60;51.60;;;;;;4355337;61;21069;-33
2021/09/26 14:05:55;;;;;;;30.30;26.17;;;22.70;51.60;;;;;;4330204;61;21164;-31
2021/09/26 14:10:56;;;;;;;29.35;25.50;;;22.70;51.60;;;;;;4343165;61;21208;-31
2021/09/26 14:16:00;;;;;;;32.53;26.52;;;22.70;51.60;;;;;;4331198;61;21637;-30
2021/09/26 14:21:06;;;;;;;31.00;26.23;;;22.70;51.60;;;;;;4328069;64;21187;-29
2021/09/26 14:26:07;;;;;;;31.05;26.12;;;22.70;51.60;;;;;;4345854;61;21089;-32
2021/09/26 14:31:11;;;;;;;33.67;27.55;;;22.70;51.70;;;;;;4341763;60;21196;-31
2021/09/26 14:36:12;;;;;;;32.40;27.35;;;22.70;51.60;;;;;;4333027;61;21049;-31
2021/09/26 14:41:15;;;;;;;30.92;26.60;;;22.70;51.60;;;;;;4353236;61;21089;-26
2021/09/26 14:46:16;;;;;;;33.70;27.62;;;22.70;51.60;;;;;;4336816;61;21144;-32
2021/09/26 14:51:20;;;;;;;33.63;28.25;;;22.70;51.60;;;;;;4352901;61;21069;-24
2021/09/26 14:56:24;;;;;;;33.47;27.87;;;22.70;51.70;;;;;;4345875;61;21173;-32
2021/09/26 15:01:25;;;;;;;33.53;28.27;;;22.70;52.30;;;;;;4344228;60;21240;-29
2021/09/26 15:06:28;;;;;;;35.22;28.33;;;22.70;51.70;;;;;;4340876;61;22418;-32
2021/09/26 15:11:31;;;;;;;36.83;29.40;;;22.70;51.70;;;;;;4349849;60;21146;-27
2021/09/26 15:16:33;;;;;;;35.42;28.33;;;22.70;51.70;;;;;;4351418;60;21130;-31
2021/09/26 15:21:36;;;;;;;37.28;30.10;;;22.70;51.70;;;;;;4328529;61;22104;-29
2021/09/26 15:26:37;;;;;;;36.58;29.92;;;22.70;51.70;;;;;;4334586;61;21653;-33
2021/09/26 15:31:39;;;;;;;39.08;29.85;;;22.70;51.70;;;;;;4354680;61;21085;-33
2021/09/26 15:36:42;;;;;;;36.72;30.65;;;22.70;51.70;;;;;;4377416;61;21126;-32
2021/09/26 15:41:43;;;;;;;37.40;30.75;;;22.70;51.70;;;;;;4330076;61;21596;-33
2021/09/26 15:46:44;;;;;;;35.33;29.25;;;22.70;51.70;;;;;;4334073;61;21077;-33
2021/09/26 15:51:45;;;;;;;36.75;30.17;;;22.70;51.70;;;;;;4328358;61;21132;-32
2021/09/26 15:56:46;;;;;;;38.13;30.12;;;22.70;51.80;;;;;;4329807;61;21619;-33
2021/09/26 16:01:47;;;;;;;36.60;30.12;;;22.70;51.80;;;;;;4329570;61;21113;-30
2021/09/26 16:06:52;;;;;;;39.45;31.80;;;22.70;51.80;;;;;;4376302;60;21142;-28
2021/09/26 16:11:53;;;;;;;37.95;31.08;;;22.70;51.80;;;;;;4329056;64;21635;-32
2021/09/26 16:16:54;;;;;;;37.45;30.80;;;22.70;51.80;;;;;;4339073;61;21056;-34
2021/09/26 16:21:55;;;;;;;36.50;30.50;;;22.70;51.80;;;;;;4331298;61;21142;-28
2021/09/26 16:26:55;;;;;;;37.38;30.73;;;22.80;51.90;;;;;;4347024;61;21069;-33
2021/09/26 16:31:56;;;;;;;38.63;31.33;;;22.70;51.80;;;;;;4373415;61;21587;-30
2021/09/26 16:36:57;;;;;;;41.13;30.48;;;22.80;51.90;;;;;;4355278;60;21073;-31
2021/09/26 16:41:58;;;;;;;37.50;29.75;;;22.80;51.90;;;;;;4344285;61;21112;-29
2021/09/26 16:46:59;;;;;;;39.65;29.83;;;22.80;51.90;;;;;;4334903;61;21611;-38
2021/09/26 16:52:00;;;;;;;36.08;29.92;;;22.80;51.90;;;;;;4355207;61;21138;-27
2021/09/26 16:57:01;;;;;;;36.70;30.20;;;22.80;51.90;;;;;;4328844;61;21562;-32
2021/09/26 17:02:02;;;;;;;37.13;30.70;;;22.80;52.00;;;;;;4335041;61;21587;-33
2021/09/26 17:07:03;;;;;;;40.22;31.08;;;22.80;52.00;;;;;;4334713;61;21116;-30
2021/09/26 17:12:05;;;;;;;36.28;30.27;;;22.80;52.00;;;;;;4339702;61;21591;-30
2021/09/26 17:17:06;;;;;;;34.55;29.87;;;22.70;52.10;;;;;;4340697;61;21044;-27
2021/09/26 17:22:08;;;;;;;35.05;29.67;;;22.70;52.00;;;;;;4342728;60;21073;-27
2021/09/26 17:27:10;;;;;;;36.60;29.33;;;22.70;52.00;;;;;;4332324;61;21057;-31
2021/09/26 17:32:12;;;;;;;35.10;28.33;;;22.80;52.10;;;;;;4349961;61;21540;-31
2021/09/26 17:37:12;;;;;;;34.72;28.25;;;22.70;52.10;;;;;;4328454;64;21683;-31
2021/09/26 17:42:13;;;;;;;37.88;30.35;;;22.80;52.10;;;;;;4343772;61;21209;-31
2021/09/26 17:47:14;;;;;;;34.75;29.17;;;22.80;52.10;;;;;;4335748;61;21049;-28
2021/09/26 17:52:15;;;;;;;34.95;29.30;;;22.70;52.20;;;;;;4365689;61;21065;-32
2021/09/26 17:57:16;;;;;;;35.42;29.00;;;22.80;52.20;;;;;;4338595;61;21132;-30
2021/09/26 18:02:17;;;;;;;35.22;30.17;;;22.70;52.10;;;;;;4339637;61;21136;-32
2021/09/26 18:07:18;;;;;;;35.17;28.80;;;22.80;52.20;;;;;;4330262;61;21170;-32
2021/09/26 18:12:20;;;;;;;33.85;28.92;;;22.80;52.20;;;;;;4331160;61;21118;-31
2021/09/26 18:17:21;;;;;;;35.30;28.95;;;22.80;52.90;;;;;;4337795;61;21592;-33
2021/09/26 18:22:22;;;;;;;35.63;28.70;;;22.70;52.20;;;;;;4330859;61;21193;-30
2021/09/26 18:27:22;;;;;;;34.25;28.65;;;22.70;52.20;;;;;;4333962;61;21105;-33
2021/09/26 18:32:23;;;;;;;33.65;29.15;;;22.80;52.20;;;;;;4367626;60;21073;-29
2021/09/26 18:37:24;;;;;;;34.00;27.10;;;22.80;52.20;;;;;;4343630;61;21053;-30
2021/09/26 18:42:27;;;;;;;35.30;28.48;;;22.70;52.20;;;;;;4337739;61;21085;-31
2021/09/26 18:47:27;;;;;;;33.08;28.12;;;22.80;52.30;;;;;;4333751;61;21126;-30
2021/09/26 18:52:28;;;;;;;32.47;27.48;;;22.70;52.30;;;;;;4330208;61;21069;-33
2021/09/26 18:57:33;;;;;;;34.67;27.92;;;22.70;52.30;;;;;;4328440;64;21081;-32
2021/09/26 19:02:34;;;;;;;36.10;27.83;;;22.70;52.30;;;;;;4329106;61;21651;-28
2021/09/26 19:07:35;;;;;;;32.05;28.17;;;22.80;52.40;;;;;;4328361;64;21141;-31
2021/09/26 19:12:36;;;;;;;32.92;27.90;;;22.70;52.30;;;;;;4372148;61;21114;-31
2021/09/26 19:17:38;;;;;;;31.85;27.55;;;22.70;52.30;;;;;;4328607;64;21183;-33
2021/09/26 19:22:40;;;;;;;35.28;27.65;;;22.70;52.40;;;;;;4343901;61;21175;-34
2021/09/26 19:27:41;;;;;;;32.33;27.70;;;22.70;52.40;;;;;;4337678;61;21061;-30
2021/09/26 19:32:43;;;;;;;35.88;27.60;;;22.70;52.50;;;;;;4349828;60;21080;-31
2021/09/26 19:37:45;;;;;;;34.58;27.67;;;22.70;52.40;;;;;;4328664;64;21624;-29
2021/09/26 19:42:46;;;;;;;32.78;28.30;;;22.70;52.50;;;;;;4331589;61;21141;-28
2021/09/26 19:47:47;;;;;;;32.35;27.75;;;22.70;53.20;;;;;;4368286;60;21101;-28
2021/09/26 19:52:48;;;;;;;32.20;26.92;;;22.70;52.50;;;;;;4329055;64;21117;-31
2021/09/26 19:57:49;;;;;;;32.20;26.17;;;22.70;52.60;;;;;;4334798;61;21049;-30
2021/09/26 20:02:52;;;;;;;31.20;26.60;;;22.70;52.50;;;;;;4343048;61;21156;-25
2021/09/26 20:07:54;;;;;;;33.95;27.75;;;22.70;52.50;;;;;;4342863;61;21633;-32
2021/09/26 20:12:56;;;;;;;33.92;27.37;;;22.70;52.60;;;;;;4364581;60;21671;-32
2021/09/26 20:17:57;;;;;;;33.65;26.52;;;22.70;52.60;;;;;;4354481;61;21092;-31
2021/09/26 20:22:58;;;;;;;32.67;26.17;;;22.70;52.60;;;;;;4356263;61;21104;-30
2021/09/26 20:28:00;;;;;;;34.33;28.27;;;22.70;52.60;;;;;;4329750;61;21104;-29
2021/09/26 20:33:00;;;;;;;33.13;27.33;;;22.70;52.60;;;;;;4343311;61;21201;-31
2021/09/26 20:38:02;;;;;;;31.60;26.27;;;22.70;52.60;;;;;;4328506;64;21101;-28
2021/09/26 20:43:06;;;;;;;32.03;26.45;;;22.70;52.70;;;;;;4327968;64;21120;-31
2021/09/26 20:48:11;;;;;;;32.03;26.92;;;22.70;52.70;;;;;;4338935;61;21053;-26
2021/09/26 20:53:12;;;;;;;32.47;27.05;;;22.70;52.70;;;;;;4354925;60;21137;-32
2021/09/26 20:58:13;;;;;;;31.62;26.23;;;22.70;52.70;;;;;;4330842;61;21893;-31
2021/09/26 21:03:14;;;;;;;29.95;25.20;;;22.70;52.70;;;;;;4328503;64;21559;-29
2021/09/26 21:08:16;;;;;;;31.55;26.12;;;22.70;52.70;;;;;;4357034;61;21092;-31
2021/09/26 21:13:17;;;;;;;31.60;26.67;;;22.80;52.70;;;;;;4331997;61;21098;-29
2021/09/26 21:18:18;;;;;;;32.00;26.42;;;22.70;52.70;;;;;;4329074;64;21596;-29
2021/09/26 21:23:21;;;;;;;30.60;25.90;;;22.70;52.70;;;;;;4328460;64;21137;-32
2021/09/26 21:28:22;;;;;;;32.03;26.50;;;22.70;52.70;;;;;;4337618;61;21117;-32
2021/09/26 21:33:25;;;;;;;30.65;25.30;;;22.70;52.70;;;;;;4329847;61;21587;-30
2021/09/26 21:38:28;;;;;;;31.20;25.88;;;22.70;52.70;;;;;;4342053;61;21093;-31
2021/09/26 21:43:29;;;;;;;32.05;26.02;;;22.70;52.70;;;;;;4337462;61;21555;-31
2021/09/26 21:48:31;;;;;;;29.95;25.52;;;22.70;52.80;;;;;;4345617;61;21133;-32
2021/09/26 21:53:32;;;;;;;32.08;26.12;;;22.70;52.70;;;;;;4352475;60;21180;-31
2021/09/26 21:58:33;;;;;;;30.35;25.73;;;22.70;52.70;;;;;;4345981;61;21105;-32
2021/09/26 22:03:39;;;;;;;30.95;24.90;;;22.80;52.90;;;;;;4367571;61;21117;-31
2021/09/26 22:08:40;;;;;;;28.90;25.08;;;22.70;52.70;;;;;;4329930;61;21120;-32
2021/09/26 22:13:44;;;;;;;31.45;26.40;;;22.70;52.70;;;;;;4355801;61;21069;-32
2021/09/26 22:18:45;;;;;;;29.12;25.33;;;22.80;52.80;;;;;;4357076;61;21583;-31
2021/09/26 22:23:55;;;;;;;30.33;25.60;;;22.70;52.70;;;;;;4335250;61;21706;-33
2021/09/26 22:28:57;;;;;;;29.73;24.80;;;22.70;52.70;;;;;;4337933;61;21153;-31
2021/09/26 22:33:58;;;;;;;30.58;25.17;;;22.70;52.70;;;;;;4345433;61;21073;-31
2021/09/26 22:39:00;;;;;;;29.80;25.35;;;22.80;52.80;;;;;;4373577;60;21126;-30
2021/09/26 22:44:00;;;;;;;28.98;24.77;;;22.80;52.80;;;;;;4329191;61;22130;-32
2021/09/26 22:49:02;;;;;;;30.00;24.83;;;22.70;52.80;;;;;;4344249;61;21081;-31
2021/09/26 22:54:03;;;;;;;29.87;25.12;;;22.80;52.80;;;;;;4344440;61;21077;-29
2021/09/26 22:59:04;;;;;;;29.42;25.15;;;22.80;52.80;;;;;;4364179;60;21714;-30
2021/09/26 23:04:05;;;;;;;30.50;24.37;;;22.70;52.80;;;;;;4334147;61;21543;-31
2021/09/26 23:09:07;;;;;;;29.00;24.50;;;22.80;52.90;;;;;;4334328;61;21104;-26
2021/09/26 23:14:08;;;;;;;28.85;25.10;;;22.70;52.80;;;;;;4342336;61;21686;-29
2021/09/26 23:19:09;;;;;;;27.37;23.60;;;22.80;52.90;;;;;;4328490;64;21116;-30
2021/09/26 23:24:12;;;;;;;29.92;24.48;;;22.70;52.90;;;;;;4379722;60;21105;-28
2021/09/26 23:29:14;;;;;;;29.08;24.05;;;22.80;52.90;;;;;;4340983;61;21555;-27
2021/09/26 23:34:15;;;;;;;27.67;23.65;;;22.80;53.00;;;;;;4349762;60;21519;-30
2021/09/26 23:39:16;;;;;;;27.35;24.12;;;22.80;53.00;;;;;;4350012;60;21104;-28
2021/09/26 23:44:17;;;;;;;26.65;23.77;;;22.80;52.90;;;;;;4337762;61;21197;-30
2021/09/26 23:49:18;;;;;;;27.87;23.33;;;22.70;52.90;;;;;;4349002;61;21061;-31
2021/09/26 23:54:19;;;;;;;27.87;24.02;;;22.80;52.90;;;;;;4329517;61;21057;-31
2021/09/26 23:59:19;;;;;;;28.00;23.58;;;22.80;53.00;;;;;;4340320;61;21101;-31
